sensor_id;sensor_type;location;lat;lon;timestamp;temperature;humidity
52919;DHT22;38793;52.690;6.812;2022-10-15T00:00:48;12.20;99.90
52919;DHT22;38793;52.690;6.812;2022-10-15T00:03:14;12.20;99.90
52919;DHT22;38793;52.690;6.812;2022-10-15T00:05:40;12.10;99.90
52919;DHT22;38793;52.690;6.812;2022-10-15T00:08:07;12.10;99.90
52919;DHT22;38793;52.690;6.812;2022-10-15T00:10:33;12.10;99.90
52919;DHT22;38793;52.690;6.812;2022-10-15T00:12:59;12.10;99.90
52919;DHT22;38793;52.690;6.812;2022-10-15T00:15:25;12.20;99.90
52919;DHT22;38793;52.690;6.812;2022-10-15T00:17:50;12.10;99.90
52919;DHT22;38793;52.690;6.812;2022-10-15T00:20:16;12.20;99.90
52919;DHT22;38793;52.690;6.812;2022-10-15T00:22:42;12.20;99.90
52919;DHT22;38793;52.690;6.812;2022-10-15T00:25:08;12.10;99.90
52919;DHT22;38793;52.690;6.812;2022-10-15T00:27:34;12.20;99.90
52919;DHT22;38793;52.690;6.812;2022-10-15T00:30:00;12.10;99.90
52919;DHT22;38793;52.690;6.812;2022-10-15T00:32:28;12.10;99.90
52919;DHT22;38793;52.690;6.812;2022-10-15T00:34:53;12.10;99.90
52919;DHT22;38793;52.690;6.812;2022-10-15T00:37:19;12.10;99.90
52919;DHT22;38793;52.690;6.812;2022-10-15T00:39:45;12.10;99.90
52919;DHT22;38793;52.690;6.812;2022-10-15T00:42:11;12.10;99.90
52919;DHT22;38793;52.690;6.812;2022-10-15T00:44:48;12.10;99.90
52919;DHT22;38793;52.690;6.812;2022-10-15T00:47:27;12.10;99.90
52919;DHT22;38793;52.690;6.812;2022-10-15T00:49:54;12.10;99.90
52919;DHT22;38793;52.690;6.812;2022-10-15T00:55:16;12.10;99.90
52919;DHT22;38793;52.690;6.812;2022-10-15T00:57:43;12.10;99.90
52919;DHT22;38793;52.690;6.812;2022-10-15T01:00:13;12.10;99.90
52919;DHT22;38793;52.690;6.812;2022-10-15T01:02:40;12.10;99.90
52919;DHT22;38793;52.690;6.812;2022-10-15T01:05:06;12.00;99.90
52919;DHT22;38793;52.690;6.812;2022-10-15T01:07:32;12.00;99.90
52919;DHT22;38793;52.690;6.812;2022-10-15T01:09:58;12.00;99.90
52919;DHT22;38793;52.690;6.812;2022-10-15T01:15:37;12.00;99.90
52919;DHT22;38793;52.690;6.812;2022-10-15T01:18:13;12.00;99.90
52919;DHT22;38793;52.690;6.812;2022-10-15T01:21:00;11.90;99.90
52919;DHT22;38793;52.690;6.812;2022-10-15T01:26:47;11.90;99.90
52919;DHT22;38793;52.690;6.812;2022-10-15T01:32:49;11.90;99.90
52919;DHT22;38793;52.690;6.812;2022-10-15T01:37:32;11.80;99.90
52919;DHT22;38793;52.690;6.812;2022-10-15T01:40:10;11.80;99.90
52919;DHT22;38793;52.690;6.812;2022-10-15T01:42:48;11.80;99.90
52919;DHT22;38793;52.690;6.812;2022-10-15T01:45:21;11.80;99.90
52919;DHT22;38793;52.690;6.812;2022-10-15T01:48:08;11.70;99.90
52919;DHT22;38793;52.690;6.812;2022-10-15T01:50:45;11.70;99.90
52919;DHT22;38793;52.690;6.812;2022-10-15T01:53:16;11.70;99.90
52919;DHT22;38793;52.690;6.812;2022-10-15T01:55:44;11.70;99.90
52919;DHT22;38793;52.690;6.812;2022-10-15T01:58:11;11.70;99.90
52919;DHT22;38793;52.690;6.812;2022-10-15T02:00:39;11.70;99.90
52919;DHT22;38793;52.690;6.812;2022-10-15T02:03:05;11.70;99.90
52919;DHT22;38793;52.690;6.812;2022-10-15T02:05:36;11.70;99.90
52919;DHT22;38793;52.690;6.812;2022-10-15T02:08:10;11.70;99.90
52919;DHT22;38793;52.690;6.812;2022-10-15T02:10:54;11.70;99.90
52919;DHT22;38793;52.690;6.812;2022-10-15T02:21:19;11.70;99.90
52919;DHT22;38793;52.690;6.812;2022-10-15T02:23:57;11.70;99.90
52919;DHT22;38793;52.690;6.812;2022-10-15T02:26:28;11.70;99.90
52919;DHT22;38793;52.690;6.812;2022-10-15T02:28:57;11.70;99.90
52919;DHT22;38793;52.690;6.812;2022-10-15T02:31:24;11.70;99.90
52919;DHT22;38793;52.690;6.812;2022-10-15T02:33:57;11.70;99.90
52919;DHT22;38793;52.690;6.812;2022-10-15T02:36:25;11.70;99.90
52919;DHT22;38793;52.690;6.812;2022-10-15T02:38:54;11.70;99.90
52919;DHT22;38793;52.690;6.812;2022-10-15T02:41:21;11.70;99.90
52919;DHT22;38793;52.690;6.812;2022-10-15T02:43:46;11.70;99.90
52919;DHT22;38793;52.690;6.812;2022-10-15T02:46:13;11.70;99.90
52919;DHT22;38793;52.690;6.812;2022-10-15T02:48:40;11.70;99.90
52919;DHT22;38793;52.690;6.812;2022-10-15T02:51:05;11.70;99.90
52919;DHT22;38793;52.690;6.812;2022-10-15T02:53:32;11.60;99.90
52919;DHT22;38793;52.690;6.812;2022-10-15T02:55:57;11.60;99.90
52919;DHT22;38793;52.690;6.812;2022-10-15T02:58:23;11.60;99.90
52919;DHT22;38793;52.690;6.812;2022-10-15T03:00:49;11.60;99.90
52919;DHT22;38793;52.690;6.812;2022-10-15T03:03:14;11.60;99.90
52919;DHT22;38793;52.690;6.812;2022-10-15T03:05:41;11.60;99.90
52919;DHT22;38793;52.690;6.812;2022-10-15T03:08:07;11.60;99.90
52919;DHT22;38793;52.690;6.812;2022-10-15T03:10:33;11.60;99.90
52919;DHT22;38793;52.690;6.812;2022-10-15T03:13:03;11.60;99.90
52919;DHT22;38793;52.690;6.812;2022-10-15T03:15:28;11.70;99.90
52919;DHT22;38793;52.690;6.812;2022-10-15T03:17:54;11.70;99.90
52919;DHT22;38793;52.690;6.812;2022-10-15T03:20:20;11.70;99.90
52919;DHT22;38793;52.690;6.812;2022-10-15T03:22:45;11.70;99.90
52919;DHT22;38793;52.690;6.812;2022-10-15T03:25:11;11.60;99.90
52919;DHT22;38793;52.690;6.812;2022-10-15T03:27:36;11.70;99.90
52919;DHT22;38793;52.690;6.812;2022-10-15T03:30:02;11.60;99.90
52919;DHT22;38793;52.690;6.812;2022-10-15T03:32:28;11.70;99.90
52919;DHT22;38793;52.690;6.812;2022-10-15T03:34:53;11.60;99.90
52919;DHT22;38793;52.690;6.812;2022-10-15T03:37:19;11.70;99.90
52919;DHT22;38793;52.690;6.812;2022-10-15T03:39:44;11.60;99.90
52919;DHT22;38793;52.690;6.812;2022-10-15T03:42:10;11.60;99.90
52919;DHT22;38793;52.690;6.812;2022-10-15T03:44:35;11.60;99.90
52919;DHT22;38793;52.690;6.812;2022-10-15T03:47:01;11.60;99.90
52919;DHT22;38793;52.690;6.812;2022-10-15T03:49:26;11.60;99.90
52919;DHT22;38793;52.690;6.812;2022-10-15T03:51:52;11.50;99.90
52919;DHT22;38793;52.690;6.812;2022-10-15T03:54:17;11.50;99.90
52919;DHT22;38793;52.690;6.812;2022-10-15T03:56:43;11.60;99.90
52919;DHT22;38793;52.690;6.812;2022-10-15T03:59:08;11.50;99.90
52919;DHT22;38793;52.690;6.812;2022-10-15T04:01:34;11.50;99.90
52919;DHT22;38793;52.690;6.812;2022-10-15T04:03:59;11.50;99.90
52919;DHT22;38793;52.690;6.812;2022-10-15T04:06:25;11.50;99.90
52919;DHT22;38793;52.690;6.812;2022-10-15T04:08:51;11.50;99.90
52919;DHT22;38793;52.690;6.812;2022-10-15T04:11:16;11.50;99.90
52919;DHT22;38793;52.690;6.812;2022-10-15T04:13:42;11.50;99.90
52919;DHT22;38793;52.690;6.812;2022-10-15T04:16:07;11.50;99.90
52919;DHT22;38793;52.690;6.812;2022-10-15T04:18:33;11.60;99.90
52919;DHT22;38793;52.690;6.812;2022-10-15T04:20:59;11.60;99.90
52919;DHT22;38793;52.690;6.812;2022-10-15T04:23:25;11.50;99.90
52919;DHT22;38793;52.690;6.812;2022-10-15T04:25:50;11.50;99.90
52919;DHT22;38793;52.690;6.812;2022-10-15T04:28:16;11.50;99.90
52919;DHT22;38793;52.690;6.812;2022-10-15T04:30:42;11.60;99.90
52919;DHT22;38793;52.690;6.812;2022-10-15T04:33:08;11.50;99.90
52919;DHT22;38793;52.690;6.812;2022-10-15T04:35:33;11.50;99.90
52919;DHT22;38793;52.690;6.812;2022-10-15T04:37:59;11.50;99.90
52919;DHT22;38793;52.690;6.812;2022-10-15T04:40:25;11.50;99.90
52919;DHT22;38793;52.690;6.812;2022-10-15T04:42:51;11.50;99.90
52919;DHT22;38793;52.690;6.812;2022-10-15T04:45:16;11.40;99.90
52919;DHT22;38793;52.690;6.812;2022-10-15T04:47:43;11.40;99.90
52919;DHT22;38793;52.690;6.812;2022-10-15T04:50:09;11.40;99.90
52919;DHT22;38793;52.690;6.812;2022-10-15T04:52:34;11.30;99.90
52919;DHT22;38793;52.690;6.812;2022-10-15T04:55:00;11.30;99.90
52919;DHT22;38793;52.690;6.812;2022-10-15T04:57:27;11.30;99.90
52919;DHT22;38793;52.690;6.812;2022-10-15T04:59:53;11.30;99.90
52919;DHT22;38793;52.690;6.812;2022-10-15T05:02:19;11.30;99.90
52919;DHT22;38793;52.690;6.812;2022-10-15T05:04:44;11.20;99.90
52919;DHT22;38793;52.690;6.812;2022-10-15T05:07:10;11.20;99.90
52919;DHT22;38793;52.690;6.812;2022-10-15T05:09:35;11.20;99.90
52919;DHT22;38793;52.690;6.812;2022-10-15T05:12:01;11.20;99.90
52919;DHT22;38793;52.690;6.812;2022-10-15T05:14:26;11.10;99.90
52919;DHT22;38793;52.690;6.812;2022-10-15T05:16:52;11.10;99.90
52919;DHT22;38793;52.690;6.812;2022-10-15T05:19:18;11.10;99.90
52919;DHT22;38793;52.690;6.812;2022-10-15T05:21:43;11.10;99.90
52919;DHT22;38793;52.690;6.812;2022-10-15T05:24:10;11.00;99.90
52919;DHT22;38793;52.690;6.812;2022-10-15T05:26:36;11.00;99.90
52919;DHT22;38793;52.690;6.812;2022-10-15T05:29:01;11.00;99.90
52919;DHT22;38793;52.690;6.812;2022-10-15T05:31:29;11.00;99.90
52919;DHT22;38793;52.690;6.812;2022-10-15T05:33:55;11.00;99.90
52919;DHT22;38793;52.690;6.812;2022-10-15T05:36:23;11.00;99.90
52919;DHT22;38793;52.690;6.812;2022-10-15T05:38:52;11.00;99.90
52919;DHT22;38793;52.690;6.812;2022-10-15T05:41:18;11.00;99.90
52919;DHT22;38793;52.690;6.812;2022-10-15T05:43:48;11.00;99.90
52919;DHT22;38793;52.690;6.812;2022-10-15T05:46:14;11.00;99.90
52919;DHT22;38793;52.690;6.812;2022-10-15T05:48:40;11.00;99.90
52919;DHT22;38793;52.690;6.812;2022-10-15T05:51:09;11.00;99.90
52919;DHT22;38793;52.690;6.812;2022-10-15T05:53:35;11.10;99.90
52919;DHT22;38793;52.690;6.812;2022-10-15T05:56:01;11.10;99.90
52919;DHT22;38793;52.690;6.812;2022-10-15T05:58:27;11.20;99.90
52919;DHT22;38793;52.690;6.812;2022-10-15T06:00:58;11.20;99.90
52919;DHT22;38793;52.690;6.812;2022-10-15T06:03:24;11.20;99.90
52919;DHT22;38793;52.690;6.812;2022-10-15T06:05:50;11.30;99.90
52919;DHT22;38793;52.690;6.812;2022-10-15T06:08:16;11.30;99.90
52919;DHT22;38793;52.690;6.812;2022-10-15T06:10:42;11.30;99.90
52919;DHT22;38793;52.690;6.812;2022-10-15T06:13:08;11.40;99.90
52919;DHT22;38793;52.690;6.812;2022-10-15T06:15:34;11.40;99.90
52919;DHT22;38793;52.690;6.812;2022-10-15T06:18:00;11.40;99.90
52919;DHT22;38793;52.690;6.812;2022-10-15T06:20:26;11.40;99.90
52919;DHT22;38793;52.690;6.812;2022-10-15T06:22:56;11.50;99.90
52919;DHT22;38793;52.690;6.812;2022-10-15T06:25:22;11.50;99.90
52919;DHT22;38793;52.690;6.812;2022-10-15T06:27:48;11.50;99.90
52919;DHT22;38793;52.690;6.812;2022-10-15T06:30:13;11.60;99.90
52919;DHT22;38793;52.690;6.812;2022-10-15T06:32:40;11.60;99.90
52919;DHT22;38793;52.690;6.812;2022-10-15T06:35:10;11.60;99.90
52919;DHT22;38793;52.690;6.812;2022-10-15T06:37:36;11.60;99.90
52919;DHT22;38793;52.690;6.812;2022-10-15T06:40:01;11.70;99.90
52919;DHT22;38793;52.690;6.812;2022-10-15T06:42:27;11.70;99.90
52919;DHT22;38793;52.690;6.812;2022-10-15T06:44:53;11.70;99.90
52919;DHT22;38793;52.690;6.812;2022-10-15T06:47:18;11.70;99.90
52919;DHT22;38793;52.690;6.812;2022-10-15T06:49:44;11.80;99.90
52919;DHT22;38793;52.690;6.812;2022-10-15T06:52:09;11.80;99.90
52919;DHT22;38793;52.690;6.812;2022-10-15T06:54:35;11.80;99.90
52919;DHT22;38793;52.690;6.812;2022-10-15T06:57:00;11.90;99.90
52919;DHT22;38793;52.690;6.812;2022-10-15T06:59:26;11.90;99.90
52919;DHT22;38793;52.690;6.812;2022-10-15T07:01:51;11.90;99.90
52919;DHT22;38793;52.690;6.812;2022-10-15T07:04:17;11.90;99.90
52919;DHT22;38793;52.690;6.812;2022-10-15T07:06:42;12.00;99.90
52919;DHT22;38793;52.690;6.812;2022-10-15T07:09:08;12.00;99.90
52919;DHT22;38793;52.690;6.812;2022-10-15T07:11:33;12.00;99.90
52919;DHT22;38793;52.690;6.812;2022-10-15T07:13:59;12.10;99.90
52919;DHT22;38793;52.690;6.812;2022-10-15T07:16:24;12.10;99.90
52919;DHT22;38793;52.690;6.812;2022-10-15T07:18:50;12.20;99.90
52919;DHT22;38793;52.690;6.812;2022-10-15T07:21:16;12.20;99.90
52919;DHT22;38793;52.690;6.812;2022-10-15T07:23:41;12.20;99.90
52919;DHT22;38793;52.690;6.812;2022-10-15T07:26:07;12.30;99.90
52919;DHT22;38793;52.690;6.812;2022-10-15T07:28:33;12.50;99.90
52919;DHT22;38793;52.690;6.812;2022-10-15T07:31:03;12.60;99.90
52919;DHT22;38793;52.690;6.812;2022-10-15T07:33:30;12.60;99.90
52919;DHT22;38793;52.690;6.812;2022-10-15T07:35:56;12.70;99.90
52919;DHT22;38793;52.690;6.812;2022-10-15T07:38:21;12.70;99.90
52919;DHT22;38793;52.690;6.812;2022-10-15T07:40:47;12.80;99.90
52919;DHT22;38793;52.690;6.812;2022-10-15T07:43:12;12.80;99.90
52919;DHT22;38793;52.690;6.812;2022-10-15T07:45:38;12.80;99.90
52919;DHT22;38793;52.690;6.812;2022-10-15T07:48:04;12.90;99.90
52919;DHT22;38793;52.690;6.812;2022-10-15T07:50:30;13.00;99.90
52919;DHT22;38793;52.690;6.812;2022-10-15T07:52:55;13.00;99.90
52919;DHT22;38793;52.690;6.812;2022-10-15T07:55:21;13.10;99.90
52919;DHT22;38793;52.690;6.812;2022-10-15T07:57:46;13.20;99.90
52919;DHT22;38793;52.690;6.812;2022-10-15T08:00:12;13.30;99.90
52919;DHT22;38793;52.690;6.812;2022-10-15T08:02:38;13.30;99.90
52919;DHT22;38793;52.690;6.812;2022-10-15T08:05:04;13.30;99.90
52919;DHT22;38793;52.690;6.812;2022-10-15T08:07:29;13.30;99.90
52919;DHT22;38793;52.690;6.812;2022-10-15T08:09:55;13.30;99.90
52919;DHT22;38793;52.690;6.812;2022-10-15T08:12:21;13.40;99.90
52919;DHT22;38793;52.690;6.812;2022-10-15T08:14:46;13.40;99.90
52919;DHT22;38793;52.690;6.812;2022-10-15T08:17:12;13.50;99.90
52919;DHT22;38793;52.690;6.812;2022-10-15T08:19:37;13.50;99.90
52919;DHT22;38793;52.690;6.812;2022-10-15T08:22:03;13.60;99.90
52919;DHT22;38793;52.690;6.812;2022-10-15T08:24:28;13.60;99.90
52919;DHT22;38793;52.690;6.812;2022-10-15T08:26:56;13.60;99.90
52919;DHT22;38793;52.690;6.812;2022-10-15T08:29:22;13.70;99.90
52919;DHT22;38793;52.690;6.812;2022-10-15T08:31:48;13.80;99.90
52919;DHT22;38793;52.690;6.812;2022-10-15T08:34:13;13.80;99.90
52919;DHT22;38793;52.690;6.812;2022-10-15T08:36:39;13.80;99.90
52919;DHT22;38793;52.690;6.812;2022-10-15T08:39:05;13.90;99.90
52919;DHT22;38793;52.690;6.812;2022-10-15T08:41:46;13.90;99.90
52919;DHT22;38793;52.690;6.812;2022-10-15T08:44:23;13.90;99.90
52919;DHT22;38793;52.690;6.812;2022-10-15T08:46:51;13.80;99.90
52919;DHT22;38793;52.690;6.812;2022-10-15T08:49:33;13.70;99.90
52919;DHT22;38793;52.690;6.812;2022-10-15T08:52:12;13.70;99.90
52919;DHT22;38793;52.690;6.812;2022-10-15T08:54:40;13.60;99.90
52919;DHT22;38793;52.690;6.812;2022-10-15T08:59:59;13.40;99.90
52919;DHT22;38793;52.690;6.812;2022-10-15T09:02:33;13.30;99.90
52919;DHT22;38793;52.690;6.812;2022-10-15T09:10:46;13.20;99.90
52919;DHT22;38793;52.690;6.812;2022-10-15T09:13:24;13.10;99.90
52919;DHT22;38793;52.690;6.812;2022-10-15T09:16:03;13.10;99.90
52919;DHT22;38793;52.690;6.812;2022-10-15T09:18:34;13.10;99.90
52919;DHT22;38793;52.690;6.812;2022-10-15T09:21:02;13.00;99.90
52919;DHT22;38793;52.690;6.812;2022-10-15T09:23:30;13.00;99.90
52919;DHT22;38793;52.690;6.812;2022-10-15T09:31:40;13.00;99.90
52919;DHT22;38793;52.690;6.812;2022-10-15T09:36:55;13.00;99.90
52919;DHT22;38793;52.690;6.812;2022-10-15T09:44:43;13.10;99.90
52919;DHT22;38793;52.690;6.812;2022-10-15T09:47:39;13.10;99.90
52919;DHT22;38793;52.690;6.812;2022-10-15T09:50:09;13.10;99.90
52919;DHT22;38793;52.690;6.812;2022-10-15T09:53:11;13.20;99.90
52919;DHT22;38793;52.690;6.812;2022-10-15T10:00:57;13.30;99.90
52919;DHT22;38793;52.690;6.812;2022-10-15T10:03:26;13.40;99.90
52919;DHT22;38793;52.690;6.812;2022-10-15T10:06:03;13.50;99.90
52919;DHT22;38793;52.690;6.812;2022-10-15T10:08:35;13.50;99.90
52919;DHT22;38793;52.690;6.812;2022-10-15T10:11:04;13.60;99.90
52919;DHT22;38793;52.690;6.812;2022-10-15T10:13:37;13.70;99.90
52919;DHT22;38793;52.690;6.812;2022-10-15T10:16:07;13.80;99.90
52919;DHT22;38793;52.690;6.812;2022-10-15T10:18:33;13.90;99.90
52919;DHT22;38793;52.690;6.812;2022-10-15T10:21:04;14.00;99.90
52919;DHT22;38793;52.690;6.812;2022-10-15T10:23:31;14.10;99.90
52919;DHT22;38793;52.690;6.812;2022-10-15T10:26:01;14.10;99.90
52919;DHT22;38793;52.690;6.812;2022-10-15T10:33:48;14.20;99.90
52919;DHT22;38793;52.690;6.812;2022-10-15T10:36:27;14.30;99.90
52919;DHT22;38793;52.690;6.812;2022-10-15T10:42:06;14.40;99.90
52919;DHT22;38793;52.690;6.812;2022-10-15T10:44:41;14.70;99.90
52919;DHT22;38793;52.690;6.812;2022-10-15T10:47:17;15.00;99.90
52919;DHT22;38793;52.690;6.812;2022-10-15T10:49:50;15.10;99.90
52919;DHT22;38793;52.690;6.812;2022-10-15T10:55:04;15.20;99.90
52919;DHT22;38793;52.690;6.812;2022-10-15T10:57:42;15.20;99.90
52919;DHT22;38793;52.690;6.812;2022-10-15T11:03:00;15.10;99.90
52919;DHT22;38793;52.690;6.812;2022-10-15T11:05:28;15.00;99.90
52919;DHT22;38793;52.690;6.812;2022-10-15T11:08:26;14.90;99.90
52919;DHT22;38793;52.690;6.812;2022-10-15T11:11:18;14.80;99.90
52919;DHT22;38793;52.690;6.812;2022-10-15T11:14:02;14.80;99.90
52919;DHT22;38793;52.690;6.812;2022-10-15T11:16:52;14.80;99.90
52919;DHT22;38793;52.690;6.812;2022-10-15T11:19:30;14.80;99.90
52919;DHT22;38793;52.690;6.812;2022-10-15T11:27:19;14.80;99.90
52919;DHT22;38793;52.690;6.812;2022-10-15T11:30:01;14.80;99.90
52919;DHT22;38793;52.690;6.812;2022-10-15T11:41:03;15.00;99.90
52919;DHT22;38793;52.690;6.812;2022-10-15T11:43:54;15.00;99.90
52919;DHT22;38793;52.690;6.812;2022-10-15T11:46:41;15.00;99.90
52919;DHT22;38793;52.690;6.812;2022-10-15T11:52:04;15.10;99.90
52919;DHT22;38793;52.690;6.812;2022-10-15T11:54:56;15.20;99.90
52919;DHT22;38793;52.690;6.812;2022-10-15T11:57:27;15.20;99.90
52919;DHT22;38793;52.690;6.812;2022-10-15T11:59:59;15.30;99.90
52919;DHT22;38793;52.690;6.812;2022-10-15T12:02:34;15.30;99.90
52919;DHT22;38793;52.690;6.812;2022-10-15T12:05:19;15.30;99.90
52919;DHT22;38793;52.690;6.812;2022-10-15T12:07:48;15.30;99.90
52919;DHT22;38793;52.690;6.812;2022-10-15T12:10:28;15.20;99.90
52919;DHT22;38793;52.690;6.812;2022-10-15T12:13:15;15.20;99.90
52919;DHT22;38793;52.690;6.812;2022-10-15T12:16:13;15.20;99.90
52919;DHT22;38793;52.690;6.812;2022-10-15T12:21:52;15.10;99.90
52919;DHT22;38793;52.690;6.812;2022-10-15T12:32:29;15.00;99.90
52919;DHT22;38793;52.690;6.812;2022-10-15T12:35:01;15.00;99.90
52919;DHT22;38793;52.690;6.812;2022-10-15T12:37:31;15.10;99.90
52919;DHT22;38793;52.690;6.812;2022-10-15T12:40:05;15.00;99.90
52919;DHT22;38793;52.690;6.812;2022-10-15T12:42:37;15.00;99.90
52919;DHT22;38793;52.690;6.812;2022-10-15T12:45:20;15.00;99.90
52919;DHT22;38793;52.690;6.812;2022-10-15T12:50:26;15.00;99.90
52919;DHT22;38793;52.690;6.812;2022-10-15T12:58:43;14.90;99.90
52919;DHT22;38793;52.690;6.812;2022-10-15T13:16:57;15.10;99.90
52919;DHT22;38793;52.690;6.812;2022-10-15T13:19:35;15.10;99.90
52919;DHT22;38793;52.690;6.812;2022-10-15T13:22:03;15.10;99.90
52919;DHT22;38793;52.690;6.812;2022-10-15T13:24:40;15.10;99.90
52919;DHT22;38793;52.690;6.812;2022-10-15T13:27:14;15.10;99.90
52919;DHT22;38793;52.690;6.812;2022-10-15T13:29:56;15.10;99.90
52919;DHT22;38793;52.690;6.812;2022-10-15T13:32:22;15.10;99.90
52919;DHT22;38793;52.690;6.812;2022-10-15T13:34:49;15.10;99.90
52919;DHT22;38793;52.690;6.812;2022-10-15T13:37:18;15.20;99.90
52919;DHT22;38793;52.690;6.812;2022-10-15T13:39:44;15.20;99.90
52919;DHT22;38793;52.690;6.812;2022-10-15T13:44:54;15.20;99.90
52919;DHT22;38793;52.690;6.812;2022-10-15T13:49:51;15.20;99.90
52919;DHT22;38793;52.690;6.812;2022-10-15T13:52:38;15.20;99.90
52919;DHT22;38793;52.690;6.812;2022-10-15T13:55:04;15.20;99.90
52919;DHT22;38793;52.690;6.812;2022-10-15T13:57:30;15.30;99.90
52919;DHT22;38793;52.690;6.812;2022-10-15T13:59:55;15.30;99.90
52919;DHT22;38793;52.690;6.812;2022-10-15T14:02:21;15.30;99.90
52919;DHT22;38793;52.690;6.812;2022-10-15T14:04:46;15.30;99.90
52919;DHT22;38793;52.690;6.812;2022-10-15T14:07:23;15.30;99.90
52919;DHT22;38793;52.690;6.812;2022-10-15T14:09:51;15.40;99.90
52919;DHT22;38793;52.690;6.812;2022-10-15T14:12:17;15.40;99.90
52919;DHT22;38793;52.690;6.812;2022-10-15T14:14:44;15.40;99.90
52919;DHT22;38793;52.690;6.812;2022-10-15T14:17:23;15.40;99.90
52919;DHT22;38793;52.690;6.812;2022-10-15T14:19:56;15.50;99.90
52919;DHT22;38793;52.690;6.812;2022-10-15T14:22:23;15.50;99.90
52919;DHT22;38793;52.690;6.812;2022-10-15T14:24:51;15.50;99.90
52919;DHT22;38793;52.690;6.812;2022-10-15T14:27:24;15.60;99.90
52919;DHT22;38793;52.690;6.812;2022-10-15T14:29:51;15.60;99.90
52919;DHT22;38793;52.690;6.812;2022-10-15T14:32:43;15.60;99.90
52919;DHT22;38793;52.690;6.812;2022-10-15T14:35:31;15.60;99.90
52919;DHT22;38793;52.690;6.812;2022-10-15T14:38:03;15.60;99.90
52919;DHT22;38793;52.690;6.812;2022-10-15T14:40:29;15.60;99.90
52919;DHT22;38793;52.690;6.812;2022-10-15T14:43:05;15.60;99.90
52919;DHT22;38793;52.690;6.812;2022-10-15T14:45:41;15.70;99.90
52919;DHT22;38793;52.690;6.812;2022-10-15T14:48:13;15.70;99.90
52919;DHT22;38793;52.690;6.812;2022-10-15T14:50:42;15.80;99.90
52919;DHT22;38793;52.690;6.812;2022-10-15T14:53:13;15.80;99.90
52919;DHT22;38793;52.690;6.812;2022-10-15T14:55:49;15.80;99.90
52919;DHT22;38793;52.690;6.812;2022-10-15T14:58:21;15.80;99.90
52919;DHT22;38793;52.690;6.812;2022-10-15T15:01:00;15.70;99.90
52919;DHT22;38793;52.690;6.812;2022-10-15T15:03:28;15.80;99.90
52919;DHT22;38793;52.690;6.812;2022-10-15T15:05:56;15.80;99.90
52919;DHT22;38793;52.690;6.812;2022-10-15T15:08:23;15.70;99.90
52919;DHT22;38793;52.690;6.812;2022-10-15T15:10:50;15.80;99.90
52919;DHT22;38793;52.690;6.812;2022-10-15T15:13:25;15.80;99.90
52919;DHT22;38793;52.690;6.812;2022-10-15T15:15:51;15.80;99.90
52919;DHT22;38793;52.690;6.812;2022-10-15T15:18:17;15.70;99.90
52919;DHT22;38793;52.690;6.812;2022-10-15T15:20:43;15.70;99.90
52919;DHT22;38793;52.690;6.812;2022-10-15T15:23:16;15.70;99.90
52919;DHT22;38793;52.690;6.812;2022-10-15T15:25:43;15.70;99.90
52919;DHT22;38793;52.690;6.812;2022-10-15T15:28:14;15.70;99.90
52919;DHT22;38793;52.690;6.812;2022-10-15T15:30:42;15.70;99.90
52919;DHT22;38793;52.690;6.812;2022-10-15T15:33:12;15.70;99.90
52919;DHT22;38793;52.690;6.812;2022-10-15T15:35:41;15.80;99.90
52919;DHT22;38793;52.690;6.812;2022-10-15T15:38:15;15.80;99.90
52919;DHT22;38793;52.690;6.812;2022-10-15T15:40:42;15.80;99.90
52919;DHT22;38793;52.690;6.812;2022-10-15T15:43:10;15.80;99.90
52919;DHT22;38793;52.690;6.812;2022-10-15T15:45:36;15.80;99.90
52919;DHT22;38793;52.690;6.812;2022-10-15T15:48:01;15.80;99.90
52919;DHT22;38793;52.690;6.812;2022-10-15T15:50:27;15.80;99.90
52919;DHT22;38793;52.690;6.812;2022-10-15T15:52:53;15.80;99.90
52919;DHT22;38793;52.690;6.812;2022-10-15T15:55:19;15.80;99.90
52919;DHT22;38793;52.690;6.812;2022-10-15T15:57:44;15.80;99.90
52919;DHT22;38793;52.690;6.812;2022-10-15T16:00:11;15.70;99.90
52919;DHT22;38793;52.690;6.812;2022-10-15T16:02:40;15.70;99.90
52919;DHT22;38793;52.690;6.812;2022-10-15T16:05:07;15.70;99.90
52919;DHT22;38793;52.690;6.812;2022-10-15T16:07:33;15.70;99.90
52919;DHT22;38793;52.690;6.812;2022-10-15T16:09:59;15.70;99.90
52919;DHT22;38793;52.690;6.812;2022-10-15T16:12:24;15.70;99.90
52919;DHT22;38793;52.690;6.812;2022-10-15T16:14:50;15.60;99.90
52919;DHT22;38793;52.690;6.812;2022-10-15T16:17:16;15.60;99.90
52919;DHT22;38793;52.690;6.812;2022-10-15T16:19:41;15.60;99.90
52919;DHT22;38793;52.690;6.812;2022-10-15T16:22:07;15.60;99.90
52919;DHT22;38793;52.690;6.812;2022-10-15T16:24:33;15.60;99.90
52919;DHT22;38793;52.690;6.812;2022-10-15T16:26:59;15.60;99.90
52919;DHT22;38793;52.690;6.812;2022-10-15T16:29:24;15.50;99.90
52919;DHT22;38793;52.690;6.812;2022-10-15T16:31:50;15.50;99.90
52919;DHT22;38793;52.690;6.812;2022-10-15T16:34:15;15.50;99.90
52919;DHT22;38793;52.690;6.812;2022-10-15T16:36:41;15.50;99.90
52919;DHT22;38793;52.690;6.812;2022-10-15T16:39:06;15.50;99.90
52919;DHT22;38793;52.690;6.812;2022-10-15T16:41:32;15.50;99.90
52919;DHT22;38793;52.690;6.812;2022-10-15T16:43:58;15.40;99.90
52919;DHT22;38793;52.690;6.812;2022-10-15T16:46:23;15.40;99.90
52919;DHT22;38793;52.690;6.812;2022-10-15T16:48:54;15.40;99.90
52919;DHT22;38793;52.690;6.812;2022-10-15T16:51:20;15.40;99.90
52919;DHT22;38793;52.690;6.812;2022-10-15T16:53:47;15.30;99.90
52919;DHT22;38793;52.690;6.812;2022-10-15T16:56:15;15.30;99.90
52919;DHT22;38793;52.690;6.812;2022-10-15T16:58:41;15.20;99.90
52919;DHT22;38793;52.690;6.812;2022-10-15T17:01:11;15.20;99.90
52919;DHT22;38793;52.690;6.812;2022-10-15T17:03:38;15.10;99.90
52919;DHT22;38793;52.690;6.812;2022-10-15T17:06:06;15.10;99.90
52919;DHT22;38793;52.690;6.812;2022-10-15T17:08:48;15.10;99.90
52919;DHT22;38793;52.690;6.812;2022-10-15T17:11:22;15.00;99.90
52919;DHT22;38793;52.690;6.812;2022-10-15T17:13:50;15.00;99.90
52919;DHT22;38793;52.690;6.812;2022-10-15T17:16:18;15.00;99.90
52919;DHT22;38793;52.690;6.812;2022-10-15T17:18:45;14.90;99.90
52919;DHT22;38793;52.690;6.812;2022-10-15T17:21:14;14.90;99.90
52919;DHT22;38793;52.690;6.812;2022-10-15T17:23:40;14.80;99.90
52919;DHT22;38793;52.690;6.812;2022-10-15T17:26:09;14.80;99.90
52919;DHT22;38793;52.690;6.812;2022-10-15T17:28:35;14.80;99.90
52919;DHT22;38793;52.690;6.812;2022-10-15T17:31:06;14.70;99.90
52919;DHT22;38793;52.690;6.812;2022-10-15T17:33:33;14.70;99.90
52919;DHT22;38793;52.690;6.812;2022-10-15T17:36:04;14.70;99.90
52919;DHT22;38793;52.690;6.812;2022-10-15T17:38:30;14.60;99.90
52919;DHT22;38793;52.690;6.812;2022-10-15T17:40:56;14.60;99.90
52919;DHT22;38793;52.690;6.812;2022-10-15T17:43:22;14.60;99.90